Time;durP1;ratioP1;P1;durP2;ratioP2;P2;SDS_P1;SDS_P2;PMS_P1;PMS_P2;Temp;Humidity;BMP_temperature;BMP_pressure;BME280_temperature;BME280_humidity;BME280_pressure;Samples;Min_cycle;Max_cycle;Signal;HPM_P1;HPM_P2
2023/09/14 00:00:20;;;;;;;0.68;0.40;;;;;;;20.10;100.00;100403.91;5065834;28;20571;-78
2023/09/14 00:02:46;;;;;;;0.75;0.65;;;;;;;19.82;100.00;100354.41;5064205;28;20037;-80
2023/09/14 00:05:12;;;;;;;1.23;1.13;;;;;;;19.49;100.00;100372.50;5060029;28;20400;-79
2023/09/14 00:07:37;;;;;;;1.15;0.98;;;;;;;19.93;100.00;100463.19;5062801;28;20025;-79
2023/09/14 00:10:03;;;;;;;0.47;0.35;;;;;;;19.99;100.00;100464.72;5059851;28;20051;-78
2023/09/14 00:12:29;;;;;;;1.75;1.65;;;;;;;20.01;100.00;100468.22;5062048;28;20041;-79
2023/09/14 00:14:56;;;;;;;1.67;1.58;;;;;;;19.29;100.00;100359.97;5064802;28;20129;-78
2023/09/14 00:17:21;;;;;;;2.30;1.33;;;;;;;20.22;100.00;100469.19;5069867;28;20045;-77
2023/09/14 00:19:47;;;;;;;0.55;0.50;;;;;;;19.56;100.00;100379.34;5066157;28;20032;-78
2023/09/14 00:22:12;;;;;;;1.45;0.88;;;;;;;19.28;100.00;100331.59;5063573;28;20053;-77
2023/09/14 00:24:37;;;;;;;0.70;0.70;;;;;;;20.12;100.00;100483.78;5067006;28;20043;-77
2023/09/14 00:27:03;;;;;;;2.65;0.60;;;;;;;19.56;100.00;100387.31;5062497;28;20063;-78
2023/09/14 00:29:29;;;;;;;1.65;1.55;;;;;;;19.28;100.00;100365.31;5067802;28;20033;-79
2023/09/14 00:31:54;;;;;;;4.03;2.17;;;;;;;19.29;100.00;100372.38;5057527;28;20174;-79
2023/09/14 00:34:21;;;;;;;1.80;0.63;;;;;;;19.11;100.00;100332.22;5040269;28;20028;-79
2023/09/14 00:36:48;;;;;;;1.65;0.80;;;;;;;19.73;100.00;100455.94;5048814;28;20059;-77
2023/09/14 00:39:14;;;;;;;10.98;2.75;;;;;;;18.98;100.00;100408.03;5045449;28;20048;-79
2023/09/14 00:41:40;;;;;;;1.40;0.85;;;;;;;18.77;100.00;100388.38;5044035;28;20033;-78
2023/09/14 00:44:06;;;;;;;0.98;0.57;;;;;;;18.89;100.00;100419.00;5058899;28;20036;-78
2023/09/14 00:46:32;;;;;;;0.98;0.88;;;;;;;19.44;100.00;100520.00;5039523;28;20908;-78
2023/09/14 00:48:58;;;;;;;2.03;1.05;;;;;;;17.95;100.00;100241.44;5064112;28;20064;-78
2023/09/14 00:51:27;;;;;;;2.40;2.00;;;;;;;19.15;100.00;100412.78;5055996;28;20080;-80
2023/09/14 00:53:54;;;;;;;1.20;1.10;;;;;;;19.61;100.00;100517.59;5073240;28;20045;-79
2023/09/14 00:56:20;;;;;;;1.75;1.55;;;;;;;19.34;100.00;100451.13;5064834;28;20048;-80
2023/09/14 00:58:47;;;;;;;6.75;2.97;;;;;;;19.49;100.00;100478.97;5046587;28;20463;-78
2023/09/14 01:01:14;;;;;;;9.98;1.70;;;;;;;19.37;100.00;100468.75;5076515;28;20465;-76
2023/09/14 01:03:40;;;;;;;1.40;1.30;;;;;;;19.48;100.00;100503.84;5052274;28;20069;-79
2023/09/14 01:06:06;;;;;;;4.57;3.53;;;;;;;18.98;100.00;100395.59;5059492;28;20049;-80
2023/09/14 01:08:32;;;;;;;1.80;1.02;;;;;;;19.01;100.00;100445.19;5066736;28;20437;-76
2023/09/14 01:10:57;;;;;;;6.15;2.95;;;;;;;18.21;100.00;100298.13;5055946;28;20087;-78
2023/09/14 01:13:58;;;;;;;1.30;1.20;;;;;;;19.49;100.00;100489.59;5058461;28;20051;-79
2023/09/14 01:16:30;;;;;;;1.95;0.85;;;;;;;19.08;100.00;100424.53;5058720;28;20508;-81
2023/09/14 01:19:10;;;;;;;0.65;0.65;;;;;;;19.10;100.00;100446.66;5050340;28;20122;-83
2023/09/14 01:22:11;;;;;;;2.22;1.05;;;;;;;19.09;100.00;100482.16;5063603;28;21143;-81
2023/09/14 01:25:04;;;;;;;1.67;1.42;;;;;;;19.30;100.00;100480.56;5060097;28;20044;-80
2023/09/14 01:27:30;;;;;;;;;;;;;;;19.25;100.00;100487.81;5049394;28;20520;-80
2023/09/14 01:29:57;;;;;;;0.60;0.55;;;;;;;18.56;100.00;100381.97;5073993;28;19924;-81
2023/09/14 01:32:25;;;;;;;0.77;0.60;;;;;;;19.19;100.00;100487.09;5067780;28;20044;-81
2023/09/14 01:34:51;;;;;;;4.15;0.68;;;;;;;19.16;100.00;100473.91;5067467;28;20095;-81
2023/09/14 01:37:17;;;;;;;3.50;1.15;;;;;;;18.31;100.00;100336.78;5065406;28;20033;-80
2023/09/14 01:39:44;;;;;;;1.30;1.20;;;;;;;18.62;100.00;100372.94;5061137;28;20036;-82
2023/09/14 01:42:10;;;;;;;1.80;1.70;;;;;;;19.33;100.00;100489.28;5064927;28;20037;-81
2023/09/14 01:44:35;;;;;;;10.75;6.25;;;;;;;18.63;100.00;100433.13;5057289;28;20056;-82
2023/09/14 01:47:01;;;;;;;5.22;2.35;;;;;;;18.72;100.00;100475.38;5068084;28;20587;-80
2023/09/14 01:49:26;;;;;;;1.08;1.00;;;;;;;18.62;100.00;100485.44;5059247;28;20038;-81
2023/09/14 01:51:53;;;;;;;1.88;1.58;;;;;;;18.17;100.00;100390.34;5067242;28;20078;-82
2023/09/14 01:54:19;;;;;;;1.42;1.33;;;;;;;18.56;100.00;100498.91;5046565;28;20060;-80
2023/09/14 01:56:45;;;;;;;2.67;1.27;;;;;;;18.53;100.00;100449.38;5058011;28;20045;-78
2023/09/14 01:59:10;;;;;;;5.60;1.48;;;;;;;18.81;100.00;100479.56;5054663;28;20079;-80
2023/09/14 02:01:37;;;;;;;0.98;0.85;;;;;;;18.64;100.00;100438.41;5061171;28;20512;-81
2023/09/14 02:04:03;;;;;;;1.13;1.02;;;;;;;18.88;100.00;100468.66;5060018;28;20128;-79
2023/09/14 02:06:29;;;;;;;2.40;2.03;;;;;;;18.40;100.00;100386.06;5060990;28;20048;-78
2023/09/14 02:08:55;;;;;;;0.95;0.77;;;;;;;18.09;100.00;100366.66;5065653;28;20056;-81
2023/09/14 02:11:20;;;;;;;1.15;1.05;;;;;;;18.79;100.00;100471.63;5062168;28;20095;-79
2023/09/14 02:13:46;;;;;;;1.45;0.98;;;;;;;18.76;100.00;100485.00;5063698;28;20028;-79
2023/09/14 02:16:12;;;;;;;1.33;1.23;;;;;;;18.75;100.00;100460.19;5054181;28;20117;-79
2023/09/14 02:18:38;;;;;;;1.15;1.05;;;;;;;18.86;100.00;100488.25;5048813;28;20786;-80
2023/09/14 02:21:04;;;;;;;1.70;1.60;;;;;;;18.53;100.00;100429.91;5065210;28;20052;-80
2023/09/14 02:23:29;;;;;;;2.05;1.77;;;;;;;18.12;100.00;100424.13;5060338;28;20508;-80
2023/09/14 02:25:55;;;;;;;1.33;1.17;;;;;;;17.99;100.00;100375.84;5052947;28;20060;-81
2023/09/14 02:28:20;;;;;;;1.75;1.55;;;;;;;18.41;100.00;100462.22;5053833;28;20475;-79
2023/09/14 02:30:46;;;;;;;4.10;1.63;;;;;;;18.66;100.00;100475.56;5060759;28;20040;-77
2023/09/14 02:33:12;;;;;;;1.05;0.95;;;;;;;17.84;100.00;100337.38;5052494;28;20076;-78
2023/09/14 02:35:40;;;;;;;2.35;2.15;;;;;;;18.58;100.00;100465.19;5051090;28;20055;-79
2023/09/14 02:38:07;;;;;;;0.38;0.38;;;;;;;18.37;100.00;100461.41;5064313;28;20063;-79
2023/09/14 02:40:33;;;;;;;1.85;1.75;;;;;;;18.46;100.00;100493.00;5030405;28;20076;-80
2023/09/14 02:42:58;;;;;;;1.70;1.02;;;;;;;17.77;100.00;100378.28;5055891;28;20090;-79
2023/09/14 02:45:24;;;;;;;0.65;0.65;;;;;;;18.33;100.00;100486.34;5046050;28;20075;-80
2023/09/14 02:47:50;;;;;;;0.70;0.63;;;;;;;17.64;100.00;100409.59;5063396;28;20594;-82
2023/09/14 02:50:15;;;;;;;1.08;0.98;;;;;;;17.86;100.00;100438.19;5062329;28;20052;-81
2023/09/14 02:52:41;;;;;;;1.05;0.95;;;;;;;18.03;100.00;100483.72;5061071;28;20035;-79
2023/09/14 02:55:07;;;;;;;0.88;0.55;;;;;;;18.01;100.00;100471.41;5030077;28;20064;-78
2023/09/14 02:57:32;;;;;;;1.15;1.05;;;;;;;17.71;100.00;100395.22;5057118;28;20037;-79
2023/09/14 02:59:58;;;;;;;0.68;0.68;;;;;;;17.66;100.00;100402.47;5054224;28;20067;-83
2023/09/14 03:02:23;;;;;;;3.65;1.90;;;;;;;17.46;100.00;100367.69;5067770;28;20036;-80
2023/09/14 03:04:52;;;;;;;0.75;0.73;;;;;;;18.12;100.00;100506.44;5064417;28;20021;-80
2023/09/14 03:07:17;;;;;;;1.65;1.42;;;;;;;18.05;100.00;100492.50;5048841;28;20052;-80
2023/09/14 03:09:43;;;;;;;3.10;2.67;;;;;;;17.60;100.00;100404.44;5063954;28;20040;-80
2023/09/14 03:12:09;;;;;;;1.45;1.35;;;;;;;17.95;100.00;100474.22;5044243;28;20044;-77
2023/09/14 03:14:34;;;;;;;1.92;1.80;;;;;;;17.65;100.00;100402.50;5057003;28;20055;-79
2023/09/14 03:17:00;;;;;;;1.58;1.48;;;;;;;18.12;100.00;100480.78;5065618;28;20017;-78
2023/09/14 03:19:26;;;;;;;5.88;1.75;;;;;;;17.78;100.00;100422.47;5056328;28;20136;-79
2023/09/14 03:21:51;;;;;;;2.08;1.73;;;;;;;17.57;100.00;100391.25;5040400;28;20055;-79
2023/09/14 03:24:17;;;;;;;1.58;1.48;;;;;;;18.09;100.00;100472.88;5060109;28;20052;-82
2023/09/14 03:26:43;;;;;;;1.50;1.40;;;;;;;18.30;100.00;100516.53;5050136;28;20036;-81
2023/09/14 03:29:08;;;;;;;3.40;1.95;;;;;;;17.50;100.00;100394.06;5055177;28;20071;-78
2023/09/14 03:31:35;;;;;;;0.93;0.60;;;;;;;18.25;100.00;100513.13;5055719;28;20445;-77
2023/09/14 03:34:00;;;;;;;4.47;1.88;;;;;;;17.78;100.00;100426.91;5057779;28;20044;-80
2023/09/14 03:36:26;;;;;;;3.17;2.88;;;;;;;17.68;100.00;100413.91;5054565;28;20122;-81
2023/09/14 03:38:52;;;;;;;2.17;1.20;;;;;;;18.17;100.00;100478.00;5062527;28;20561;-79
2023/09/14 03:41:17;;;;;;;1.67;1.17;;;;;;;17.76;100.00;100445.53;5058481;28;20041;-78
2023/09/14 03:43:43;;;;;;;1.25;1.15;;;;;;;17.92;100.00;100477.84;5055476;28;20043;-81
2023/09/14 03:46:10;;;;;;;0.73;0.73;;;;;;;17.52;100.00;100410.81;5058960;28;20500;-80
2023/09/14 03:48:36;;;;;;;0.50;0.50;;;;;;;18.05;100.00;100496.91;5060515;28;20552;-80
2023/09/14 03:51:01;;;;;;;2.10;1.40;;;;;;;17.33;100.00;100432.63;5063673;28;20609;-80
2023/09/14 03:53:27;;;;;;;24.17;2.35;;;;;;;17.45;100.00;100480.03;5060340;28;20059;-79
2023/09/14 03:55:54;;;;;;;2.10;1.73;;;;;;;17.18;100.00;100463.91;5060226;28;20067;-81
2023/09/14 03:58:19;;;;;;;2.15;1.95;;;;;;;17.54;100.00;100529.31;5057113;28;20039;-80
2023/09/14 04:00:45;;;;;;;2.80;2.53;;;;;;;17.36;100.00;100501.50;5063412;28;20492;-78
2023/09/14 04:03:11;;;;;;;3.22;2.20;;;;;;;16.77;100.00;100417.28;5058459;28;20057;-80
2023/09/14 04:05:36;;;;;;;2.72;2.45;;;;;;;17.25;100.00;100485.84;5060307;28;20493;-79
2023/09/14 04:08:02;;;;;;;2.55;2.35;;;;;;;17.07;100.00;100432.41;5060460;28;20028;-79
2023/09/14 04:10:28;;;;;;;2.85;2.40;;;;;;;17.64;100.00;100509.56;5049554;28;20541;-83
2023/09/14 04:13:17;;;;;;;4.50;2.38;;;;;;;16.81;100.00;100417.19;5061481;28;20056;-80
2023/09/14 04:15:43;;;;;;;1.02;0.95;;;;;;;16.90;100.00;100433.75;5061810;28;20072;-80
2023/09/14 04:18:09;;;;;;;1.52;1.40;;;;;;;16.75;100.00;100448.22;5059064;28;20139;-81
2023/09/14 04:20:34;;;;;;;3.60;1.75;;;;;;;17.03;100.00;100507.63;5061189;28;20097;-81
2023/09/14 04:23:00;;;;;;;1.52;0.98;;;;;;;17.36;100.00;100541.28;5056361;28;20041;-81
2023/09/14 04:25:25;;;;;;;1.10;0.98;;;;;;;17.49;100.00;100532.09;5062429;28;20032;-82
2023/09/14 04:27:51;;;;;;;10.88;1.70;;;;;;;17.38;100.00;100537.69;5054021;28;20177;-80
2023/09/14 04:30:19;;;;;;;2.70;2.30;;;;;;;16.97;100.00;100443.28;5038843;28;20056;-81
2023/09/14 04:32:49;;;;;;;1.73;1.30;;;;;;;16.61;100.00;100363.78;5049277;28;20184;-81
2023/09/14 04:35:23;;;;;;;1.20;0.75;;;;;;;16.72;100.00;100397.97;4992912;28;20473;-82
2023/09/14 04:38:02;;;;;;;6.28;2.03;;;;;;;16.54;100.00;100376.31;5004979;28;20068;-79
2023/09/14 04:40:48;;;;;;;1.70;1.58;;;;;;;17.25;100.00;100499.09;4978157;28;20473;-81
2023/09/14 04:43:16;;;;;;;1.40;1.10;;;;;;;17.69;100.00;100534.19;4990473;28;20057;-77
2023/09/14 04:45:45;;;;;;;2.08;1.88;;;;;;;16.49;100.00;100350.88;4998878;28;20156;-80
2023/09/14 04:48:15;;;;;;;1.85;1.27;;;;;;;17.22;100.00;100456.78;5026832;28;20071;-81
2023/09/14 04:50:52;;;;;;;1.15;1.05;;;;;;;17.48;100.00;100487.88;5024450;28;20137;-79
2023/09/14 04:53:21;;;;;;;5.38;2.38;;;;;;;16.57;100.00;100351.53;4994409;28;20750;-80
2023/09/14 04:55:52;;;;;;;1.63;1.52;;;;;;;17.69;100.00;100535.06;5002957;28;20050;-78
2023/09/14 04:58:18;;;;;;;1.38;0.45;;;;;;;17.17;100.00;100432.16;4979371;28;20057;-80
2023/09/14 05:00:49;;;;;;;1.10;0.82;;;;;;;17.21;100.00;100394.91;4998058;28;20076;-80
2023/09/14 05:03:16;;;;;;;1.98;1.88;;;;;;;17.40;100.00;100395.25;5021438;28;20552;-83
2023/09/14 05:05:59;;;;;;;2.13;1.83;;;;;;;17.35;100.00;100352.09;5002512;28;20464;-81
2023/09/14 05:08:25;;;;;;;0.43;0.40;;;;;;;17.79;100.00;100425.97;5045433;28;20079;-85
2023/09/14 05:10:51;;;;;;;6.55;1.08;;;;;;;18.33;100.00;100523.53;5013877;28;20450;-81
2023/09/14 05:13:18;;;;;;;1.08;0.95;;;;;;;18.58;100.00;100517.47;5060790;28;20040;-83
2023/09/14 05:15:45;;;;;;;2.92;2.22;;;;;;;17.91;100.00;100384.06;5057744;28;20494;-83
2023/09/14 05:18:10;;;;;;;1.73;1.08;;;;;;;18.06;100.00;100425.19;5058573;28;20789;-80
2023/09/14 05:20:36;;;;;;;2.95;2.50;;;;;;;17.99;100.00;100412.16;5054281;28;20049;-80
2023/09/14 05:23:03;;;;;;;4.13;2.72;;;;;;;19.13;100.00;100452.75;5061465;28;20033;-79
2023/09/14 05:25:29;;;;;;;0.52;0.52;;;;;;;19.93;100.00;100491.63;5052243;28;20033;-75
2023/09/14 05:27:54;;;;;;;2.72;2.53;;;;;;;20.20;100.00;100482.56;5053090;28;20102;-75
2023/09/14 05:30:22;;;;;;;1.75;1.63;;;;;;;19.96;100.00;100404.47;5061094;28;20078;-74
2023/09/14 05:32:49;;;;;;;2.55;2.35;;;;;;;20.54;100.00;100438.59;5065194;28;20128;-78
2023/09/14 05:35:14;;;;;;;2.90;1.73;;;;;;;22.00;100.00;100498.16;5051809;28;20135;-79
2023/09/14 05:37:40;;;;;;;3.50;1.90;;;;;;;22.34;100.00;100503.72;5049483;28;20084;-79
2023/09/14 05:40:12;;;;;;;2.92;2.13;;;;;;;22.36;100.00;100487.59;5047217;28;20049;-78
2023/09/14 05:42:38;;;;;;;0.70;0.67;;;;;;;22.90;100.00;100523.31;5057964;28;20067;-79
2023/09/14 05:45:06;;;;;;;3.90;2.03;;;;;;;21.97;100.00;100515.22;5041400;28;20041;-78
2023/09/14 05:47:32;;;;;;;1.90;1.80;;;;;;;22.10;100.00;100492.34;5036339;28;20052;-79
2023/09/14 05:49:57;;;;;;;1.05;0.95;;;;;;;22.18;100.00;100416.28;5041867;28;20457;-77
2023/09/14 05:52:23;;;;;;;1.35;1.25;;;;;;;21.95;100.00;100444.94;5038193;28;20097;-79
2023/09/14 05:54:49;;;;;;;1.23;1.08;;;;;;;22.53;100.00;100489.47;5041964;28;20061;-80
2023/09/14 05:57:14;;;;;;;2.17;1.25;;;;;;;23.06;100.00;100511.84;5016917;28;20061;-78
2023/09/14 05:59:40;;;;;;;3.42;2.45;;;;;;;23.55;100.00;100448.59;5024950;28;20042;-77
2023/09/14 06:02:07;;;;;;;1.38;1.20;;;;;;;23.03;100.00;100445.97;5019095;28;20030;-77
2023/09/14 06:04:32;;;;;;;2.95;1.92;;;;;;;22.92;100.00;100525.88;5026323;28;20036;-78
2023/09/14 06:06:58;;;;;;;3.35;2.47;;;;;;;22.02;100.00;100485.59;5023557;28;20041;-78
2023/09/14 06:09:25;;;;;;;2.10;1.88;;;;;;;22.04;100.00;100484.59;5020959;28;20076;-77
2023/09/14 06:11:50;;;;;;;2.85;2.22;;;;;;;22.48;100.00;100508.41;5013589;28;20053;-77
2023/09/14 06:14:16;;;;;;;3.47;1.38;;;;;;;21.76;100.00;100356.78;5021836;28;20422;-79
2023/09/14 06:16:41;;;;;;;4.32;3.95;;;;;;;20.98;100.00;100347.00;5017518;28;20120;-79
2023/09/14 06:19:07;;;;;;;1.70;1.60;;;;;;;21.61;100.00;100414.47;5015606;28;20074;-79
2023/09/14 06:21:33;;;;;;;1.65;1.52;;;;;;;22.45;100.00;100513.03;5021944;28;20041;-78
2023/09/14 06:23:59;;;;;;;2.60;2.40;;;;;;;22.42;100.00;100503.34;5002632;28;20061;-79
2023/09/14 06:26:27;;;;;;;1.08;0.93;;;;;;;22.13;100.00;100409.34;5012208;28;20120;-79
2023/09/14 06:28:53;;;;;;;3.00;2.78;;;;;;;22.47;100.00;100471.03;5017935;28;20038;-77
2023/09/14 06:31:19;;;;;;;1.63;1.38;;;;;;;22.77;100.00;100515.00;5022083;28;20042;-78
2023/09/14 06:33:44;;;;;;;3.90;3.58;;;;;;;22.46;100.00;100515.63;5015454;28;20072;-78
2023/09/14 06:36:10;;;;;;;2.70;2.17;;;;;;;22.62;100.00;100514.91;5016228;28;20140;-79
2023/09/14 06:38:35;;;;;;;1.38;1.25;;;;;;;22.32;100.00;100445.91;5017512;28;20068;-78
2023/09/14 06:41:01;;;;;;;1.42;1.25;;;;;;;22.21;100.00;100432.19;5017441;28;20068;-79
2023/09/14 06:43:26;;;;;;;2.15;0.85;;;;;;;22.23;100.00;100473.94;5021626;28;20440;-77
2023/09/14 06:45:52;;;;;;;2.30;1.88;;;;;;;22.57;100.00;100466.97;5011657;28;20442;-81
2023/09/14 06:48:17;;;;;;;1.20;1.13;;;;;;;22.61;100.00;100499.78;5014459;28;20056;-79
2023/09/14 06:50:43;;;;;;;2.22;1.65;;;;;;;22.59;100.00;100493.63;5012121;28;20096;-78
2023/09/14 06:53:09;;;;;;;2.35;2.05;;;;;;;22.93;100.00;100492.84;5029837;28;20687;-79
2023/09/14 06:55:39;;;;;;;2.65;1.77;;;;;;;22.60;100.00;100424.03;5020685;28;20050;-79
2023/09/14 06:58:05;;;;;;;1.92;1.73;;;;;;;23.36;100.00;100528.16;5008473;28;20057;-81
2023/09/14 07:00:32;;;;;;;2.25;2.03;;;;;;;23.20;100.00;100503.13;5020795;28;20093;-78
2023/09/14 07:02:58;;;;;;;2.38;1.95;;;;;;;23.22;100.00;100515.47;5024559;28;20065;-74
2023/09/14 07:05:24;;;;;;;3.50;1.50;;;;;;;23.58;100.00;100523.44;5022648;28;20038;-75
2023/09/14 07:07:49;;;;;;;8.85;2.53;;;;;;;24.08;100.00;100512.81;5017772;28;20033;-73
2023/09/14 07:10:15;;;;;;;0.63;0.63;;;;;;;24.12;100.00;100517.06;5007179;28;20026;-67
2023/09/14 07:12:40;;;;;;;1.48;1.38;;;;;;;23.47;100.00;100445.47;5010072;28;20049;-66
2023/09/14 07:15:06;;;;;;;2.53;1.77;;;;;;;23.92;100.00;100519.00;5017783;28;20057;-65
2023/09/14 07:17:32;;;;;;;4.50;2.67;;;;;;;24.23;100.00;100528.03;5023806;28;20033;-66
2023/09/14 07:19:57;;;;;;;1.63;1.25;;;;;;;24.25;100.00;100522.59;5016574;28;20489;-64
2023/09/14 07:22:23;;;;;;;2.33;2.13;;;;;;;24.11;100.00;100454.50;5025948;28;20045;-68
2023/09/14 07:24:48;;;;;;;1.65;1.20;;;;;;;24.53;100.00;100519.28;5024369;28;20421;-65
2023/09/14 07:27:15;;;;;;;1.55;1.45;;;;;;;24.02;100.00;100471.09;5022237;28;20389;-66
2023/09/14 07:29:40;;;;;;;0.43;0.20;;;;;;;24.38;100.00;100519.16;4999473;28;20076;-67
2023/09/14 07:32:06;;;;;;;2.67;1.90;;;;;;;24.10;100.00;100430.47;5025661;28;20049;-65
2023/09/14 07:34:32;;;;;;;1.98;1.35;;;;;;;24.82;100.00;100523.84;5015636;28;20029;-66
2023/09/14 07:36:57;;;;;;;0.95;0.88;;;;;;;24.80;100.00;100525.75;5018640;28;20061;-67
2023/09/14 07:39:23;;;;;;;2.75;2.53;;;;;;;24.40;100.00;100446.66;5016787;28;20056;-67
2023/09/14 07:41:48;;;;;;;3.58;3.28;;;;;;;24.88;100.00;100497.59;5025650;28;20387;-66
2023/09/14 07:44:14;;;;;;;11.55;2.38;;;;;;;25.09;100.00;100512.44;5025541;28;20037;-66
2023/09/14 07:46:39;;;;;;;2.13;1.90;;;;;;;24.77;100.00;100433.81;5013989;28;20041;-65
2023/09/14 07:49:05;;;;;;;1.42;1.20;;;;;;;25.25;100.00;100520.50;5010193;28;20748;-67
2023/09/14 07:51:31;;;;;;;4.72;1.05;;;;;;;24.71;100.00;100431.50;5023033;28;20106;-67
2023/09/14 07:53:57;;;;;;;3.75;3.15;;;;;;;24.61;100.00;100421.31;5000400;28;20041;-67
2023/09/14 07:56:23;;;;;;;0.93;0.73;;;;;;;25.20;95.79;100512.72;5030053;28;20409;-67
2023/09/14 07:58:48;;;;;;;4.07;2.60;;;;;;;24.76;94.93;100430.25;5026855;28;20029;-67
2023/09/14 08:01:13;;;;;;;1.25;1.15;;;;;;;25.59;91.55;100526.53;5038626;28;20046;-66
2023/09/14 08:03:39;;;;;;;2.63;1.90;;;;;;;25.56;92.88;100524.88;5037533;28;20041;-66
2023/09/14 08:06:04;;;;;;;2.15;1.13;;;;;;;25.63;95.43;100526.25;5041120;28;20104;-67
2023/09/14 08:08:32;;;;;;;0.98;0.90;;;;;;;25.35;95.97;100450.97;5038215;28;20374;-67
2023/09/14 08:10:58;;;;;;;24.30;2.58;;;;;;;25.30;98.22;100456.63;5038583;28;20037;-68
2023/09/14 08:13:23;;;;;;;0.82;0.82;;;;;;;25.68;86.72;100501.78;5036992;28;20044;-66
2023/09/14 08:15:49;;;;;;;1.80;1.52;;;;;;;25.45;84.63;100441.38;5045148;28;20052;-68
2023/09/14 08:18:14;;;;;;;2.22;1.10;;;;;;;25.10;95.44;100427.38;5044036;28;20037;-67
2023/09/14 08:20:44;;;;;;;2.50;2.08;;;;;;;24.97;95.86;100424.59;5042759;28;20056;-67
2023/09/14 08:23:12;;;;;;;2.35;1.77;;;;;;;25.92;86.74;100510.19;5051597;28;20152;-67
2023/09/14 08:25:43;;;;;;;0.75;0.68;;;;;;;25.63;84.97;100440.25;5046695;28;20063;-67
2023/09/14 08:28:17;;;;;;;2.67;1.58;;;;;;;25.73;84.06;100459.38;5040208;28;20046;-67
2023/09/14 08:30:43;;;;;;;0.20;0.20;;;;;;;25.73;78.88;100431.59;5049166;28;20497;-66
2023/09/14 08:33:12;;;;;;;5.63;3.45;;;;;;;26.43;76.59;100499.72;5040797;28;20490;-66
2023/09/14 08:35:38;;;;;;;0.70;0.70;;;;;;;26.28;82.24;100514.19;5040792;28;20052;-67
2023/09/14 08:38:05;;;;;;;0.85;0.85;;;;;;;26.57;74.37;100515.03;5048479;28;20029;-66
2023/09/14 08:40:31;;;;;;;2.28;1.90;;;;;;;26.41;77.00;100512.44;5038152;28;20050;-67
2023/09/14 08:42:58;;;;;;;0.95;0.88;;;;;;;25.67;83.17;100416.75;5040144;28;20472;-67
2023/09/14 08:45:32;;;;;;;1.27;0.82;;;;;;;26.37;79.25;100513.59;5041975;28;20064;-67
2023/09/14 08:48:01;;;;;;;7.35;4.88;;;;;;;26.32;81.65;100511.22;5046058;28;20037;-67
2023/09/14 08:50:29;;;;;;;1.40;1.17;;;;;;;26.55;79.00;100508.91;5034667;28;20064;-70
2023/09/14 08:52:55;;;;;;;2.53;1.30;;;;;;;27.12;68.88;100488.97;5043024;28;20029;-70
2023/09/14 08:55:23;;;;;;;9.23;3.90;;;;;;;27.28;66.87;100502.28;5023403;28;20067;-69
2023/09/14 08:57:49;;;;;;;5.97;3.15;;;;;;;27.25;67.91;100489.84;5015868;28;20053;-73
2023/09/14 09:00:15;;;;;;;0.30;0.30;;;;;;;26.12;78.13;100436.31;5000602;28;20096;-72
2023/09/14 09:02:45;;;;;;;2.88;2.65;;;;;;;26.74;74.93;100492.41;5015393;28;20038;-72
2023/09/14 09:05:12;;;;;;;2.58;1.80;;;;;;;27.25;67.18;100472.84;4988498;28;20653;-76
2023/09/14 09:07:42;;;;;;;1.20;1.10;;;;;;;27.11;64.76;100461.16;5014512;28;20075;-76
2023/09/14 09:10:15;;;;;;;8.70;1.33;;;;;;;26.88;63.92;100403.47;5018810;28;20056;-77
2023/09/14 09:12:41;;;;;;;1.58;1.33;;;;;;;26.56;64.65;100378.72;5008556;28;20129;-76
2023/09/14 09:15:07;;;;;;;1.05;0.98;;;;;;;26.87;65.51;100396.34;5020284;28;20056;-76
2023/09/14 09:17:38;;;;;;;27.77;5.63;;;;;;;27.64;63.87;100477.28;5016149;28;20041;-77
2023/09/14 09:20:13;;;;;;;4.85;3.00;;;;;;;27.72;61.85;100476.72;5023486;28;20068;-77
2023/09/14 09:22:41;;;;;;;1.35;1.02;;;;;;;27.88;58.43;100426.16;5022419;28;20068;-76
2023/09/14 09:25:07;;;;;;;0.75;0.75;;;;;;;28.01;59.79;100466.59;5022225;28;20056;-77
2023/09/14 09:27:35;;;;;;;0.60;0.50;;;;;;;27.37;59.35;100380.38;5032385;28;20049;-77
2023/09/14 09:30:01;;;;;;;1.08;0.98;;;;;;;28.06;59.70;100448.25;5044585;28;20065;-78
2023/09/14 09:32:27;;;;;;;0.88;0.43;;;;;;;28.11;57.40;100464.09;5041502;28;20091;-76
2023/09/14 09:34:52;;;;;;;1.60;1.10;;;;;;;28.14;55.04;100416.19;5039716;28;20041;-78
2023/09/14 09:37:18;;;;;;;0.55;0.55;;;;;;;28.13;54.63;100419.00;5043402;28;20481;-76
2023/09/14 09:39:46;;;;;;;0.60;0.50;;;;;;;28.27;51.96;100440.41;5038719;28;20048;-76
2023/09/14 09:42:12;;;;;;;2.35;1.75;;;;;;;28.37;50.77;100440.59;5032503;28;20137;-75
2023/09/14 09:44:41;;;;;;;0.73;0.65;;;;;;;28.37;52.00;100430.66;5036534;28;20052;-75
2023/09/14 09:47:12;;;;;;;3.33;0.77;;;;;;;28.45;50.10;100435.50;5040294;28;20080;-76
2023/09/14 09:49:39;;;;;;;1.90;1.80;;;;;;;27.73;49.59;100297.81;5045456;28;20069;-76
2023/09/14 09:52:10;;;;;;;8.25;1.95;;;;;;;28.14;48.02;100367.63;5030632;28;20049;-74
2023/09/14 09:54:36;;;;;;;1.02;0.93;;;;;;;28.17;49.02;100367.38;5045773;28;20037;-74
2023/09/14 09:57:04;;;;;;;0.90;0.85;;;;;;;28.65;49.00;100439.44;5064262;28;20044;-77
2023/09/14 09:59:30;;;;;;;2.10;1.60;;;;;;;28.35;49.04;100356.16;5062979;28;20055;-76
2023/09/14 10:01:56;;;;;;;1.05;0.95;;;;;;;28.43;49.17;100361.88;5063471;28;20024;-77
2023/09/14 10:04:27;;;;;;;0.55;0.52;;;;;;;29.00;48.82;100435.88;5063245;28;20040;-75
2023/09/14 10:06:55;;;;;;;1.15;1.05;;;;;;;28.80;47.54;100453.63;5064278;28;20040;-77
2023/09/14 10:09:21;;;;;;;2.78;1.80;;;;;;;28.91;47.27;100428.47;5056702;28;20063;-75
2023/09/14 10:11:49;;;;;;;2.03;1.80;;;;;;;29.11;46.47;100417.03;5019993;28;20062;-73
2023/09/14 10:14:18;;;;;;;0.40;0.40;;;;;;;29.18;46.86;100444.44;5049830;28;20049;-75
2023/09/14 10:16:44;;;;;;;25.80;1.75;;;;;;;29.27;46.65;100437.44;5061633;28;20028;-75
2023/09/14 10:19:11;;;;;;;2.95;1.80;;;;;;;29.22;47.92;100394.56;5057721;28;20040;-77
2023/09/14 10:21:39;;;;;;;0.75;0.75;;;;;;;28.84;47.13;100301.13;5053503;28;20040;-74
2023/09/14 10:24:06;;;;;;;0.20;0.20;;;;;;;29.36;46.25;100421.41;5037560;28;20414;-74
2023/09/14 10:26:39;;;;;;;1.08;0.93;;;;;;;29.02;47.85;100342.91;5039829;28;20057;-75
2023/09/14 10:29:08;;;;;;;2.25;1.88;;;;;;;29.56;46.85;100425.22;5054152;28;20135;-76
2023/09/14 10:31:35;;;;;;;3.53;3.22;;;;;;;29.48;45.83;100362.78;5063931;28;20602;-76
2023/09/14 10:34:03;;;;;;;1.20;1.10;;;;;;;30.14;45.79;100425.09;5063825;28;20044;-76
2023/09/14 10:36:30;;;;;;;0.93;0.88;;;;;;;30.30;44.80;100416.59;5057086;28;20076;-76
2023/09/14 10:39:01;;;;;;;4.82;2.80;;;;;;;30.41;43.74;100354.25;5056831;28;20103;-75
2023/09/14 10:41:27;;;;;;;0.93;0.88;;;;;;;31.16;44.01;100417.47;5051035;28;20053;-74
2023/09/14 10:43:56;;;;;;;1.05;1.02;;;;;;;31.18;43.55;100425.47;5063321;28;20119;-76
2023/09/14 10:46:26;;;;;;;1.95;1.85;;;;;;;30.78;41.59;100337.59;5036183;28;20036;-74
2023/09/14 10:48:55;;;;;;;1.83;1.48;;;;;;;31.64;43.12;100405.22;5058102;28;20048;-75
2023/09/14 10:51:22;;;;;;;0.43;0.43;;;;;;;31.32;42.51;100382.59;5044991;28;20148;-75
2023/09/14 10:53:49;;;;;;;0.47;0.47;;;;;;;30.79;41.51;100314.94;5063950;28;20059;-75
2023/09/14 10:56:21;;;;;;;2.63;2.20;;;;;;;31.59;43.07;100399.34;5064336;28;20117;-77
2023/09/14 10:58:51;;;;;;;1.00;0.98;;;;;;;31.61;41.99;100390.06;5059007;28;20036;-76
2023/09/14 11:01:25;;;;;;;5.13;1.85;;;;;;;31.35;42.25;100381.47;5062864;28;20085;-77
2023/09/14 11:04:13;;;;;;;1.05;0.95;;;;;;;31.38;41.93;100388.50;5056310;28;20045;-76
2023/09/14 11:06:50;;;;;;;9.15;2.03;;;;;;;31.12;41.95;100326.56;5054482;28;20049;-77
2023/09/14 11:09:17;;;;;;;3.30;2.20;;;;;;;31.63;40.37;100355.53;5052684;28;20067;-75
2023/09/14 11:11:50;;;;;;;3.45;1.75;;;;;;;31.20;41.17;100377.41;5063085;28;20043;-74
2023/09/14 11:14:17;;;;;;;2.17;1.85;;;;;;;30.82;40.57;100317.38;5050995;28;20558;-76
2023/09/14 11:17:00;;;;;;;0.88;0.88;;;;;;;30.99;41.29;100372.84;5059877;28;20032;-76
2023/09/14 11:19:31;;;;;;;1.35;1.15;;;;;;;31.00;41.29;100376.41;5068503;28;20070;-75